Observations for LEEDS AND BRADFORD, United Kingdom (EGNM)

EGNM 220820Z 28012KT 9999 SCT007 BKN010 17/14 Q1015 
EGNM 220750Z 28012KT 9999 SCT008 BKN010 16/14 Q1015 
EGNM 220720Z 28014KT 9999 SCT008 BKN010 16/14 Q1015 
EGNM 220650Z 27014KT 9999 FEW008 BKN012 16/14 Q1015 
EGNM 220620Z 27016KT 9999 SCT008 SCT022 15/13 Q1015 
EGNM 220550Z 27014KT 9999 SCT008 BKN020 15/13 Q1015 
EGNM 220520Z 27014KT 9999 SCT012 BKN030 14/12 Q1015 
EGNM 220450Z 27015KT 9999 FEW010 SCT036 14/13 Q1014 
EGNM 220350Z 28013KT 9999 FEW012 SCT038 15/12 Q1014 
EGNM 220320Z 27011KT 240V300 9999 SCT035 15/12 Q1014
EGNM 220250Z 27014KT 9999 SCT042 14/12 Q1014
EGNM 220220Z 27012KT 9999 -SHRA FEW018 SCT039 14/12 Q1014   
EGNM 220150Z 28013KT 9999 -SHRA SCT043 14/12 Q1015  
EGNM 220120Z 28014KT 9999 SCT043 14/12 Q1015
EGNM 220050Z 28015KT CAVOK 14/12 Q1014  
EGNM 220020Z 27016KT CAVOK 14/12 Q1014  
EGNM 212350Z 27017KT CAVOK 14/12 Q1015  
EGNM 212320Z 27015KT 9999 FEW010 14/12 Q1015
EGNM 212250Z 27016KT 9999 -RA FEW010 14/11 Q1015
EGNM 212220Z 27012KT CAVOK 14/11 Q1015  
EGNM 212150Z 28012KT 9999 FEW010 14/11 Q1015
EGNM 212120Z 28011KT 9999 FEW010 15/11 Q1015
EGNM 212050Z 26011KT 9999 SCT010 15/12 Q1015
EGNM 212020Z 27009KT 240V300 9999 SCT010 15/13 Q1015
EGNM 211950Z 25011KT 9999 FEW018 16/12 Q1014
EGNM 211920Z 25009KT 9999 SCT016 16/12 Q1014
EGNM 211850Z 26010KT 9999 BKN020 17/13 Q1015
EGNM 211820Z 27009KT 9999 BKN018 17/13 Q1014
EGNM 211750Z 25008KT 230V300 9999 FEW020 BKN025 18/13 Q1014 
EGNM 211720Z 26009KT 220V310 9999 FEW020 BKN025 18/13 Q1014 
EGNM 211650Z 27010KT 240V310 9999 SCT020 BKN030 19/14 Q1015 
EGNM 211620Z 27006KT 230V300 9999 FEW028 BKN033 18/13 Q1015 
EGNM 211550Z 26009KT 9999 SCT018 BKN025 19/13 Q1015 
EGNM 211520Z 25007KT 220V280 9999 SCT018 BKN025 19/14 Q1015 
EGNM 211450Z 26008KT 9999 FEW018 BKN028 19/13 Q1015 
EGNM 211420Z 27008KT 9999 FEW019 BKN021 19/14 Q1015 
EGNM 211350Z 29009KT 250V320 9999 FEW018 BKN022 18/13 Q1015 
EGNM 211320Z 28008KT 250V320 9999 FEW018 BKN022 18/13 Q1015 
EGNM 211250Z 27008KT 240V310 9999 FEW019 BKN023 18/13 Q1015 
EGNM 211220Z 27008KT 230V300 9999 FEW020 BKN023 18/13 Q1015 
EGNM 211150Z 26007KT 230V300 9999 FEW015 BKN024 18/13 Q1015 
EGNM 211120Z 29007KT 250V330 9999 FEW015 BKN022 17/13 Q1015 
EGNM 211050Z 28007KT 240V320 9999 SCT011 BKN021 17/13 Q1015 
EGNM 211020Z 26006KT 230V290 9999 SCT011 BKN021 17/13 Q1015 
EGNM 210950Z 26006KT 230V290 9999 SCT011 BKN021 17/13 Q1014 
EGNM 210920Z 25005KT 200V290 9999 SCT008 BKN017 16/13 Q1014 
EGNM 210850Z 26005KT 220V290 9999 SCT009 BKN016 16/13 Q1014 
EGNM 210820Z 26004KT 220V300 9999 SCT008 BKN011 15/13 Q1014 
EGNM 210750Z VRB03KT 9999 SCT008 BKN012 15/13 Q1014